Yichang, China
Current Conditions -  °F | °C
As of 10:00 AM on Tuesday 21 Oct 2014 (Local Time) from ZHHH Reporting Station
Scattered Clouds Scattered Clouds  
Wind Chill: 64°   Ceiling: Unl
Heat Index: 64°   Visibility: 6mi
Dew Point: 61°   Wind: 9mph
Humidity: 88%   Direction: 360°N
Pressure: 30.15"   Gusts: NA
Location:  30.7°N, 111.28°E
Report Text: ZHHH 210200Z 36004MPS 300V030 9999 SCT023 18/16 Q1021 NOSIG
Loading
Personal Weather Stations






























Interactive Weather Map
Tropical Storm Tracking
New forecast layout! Learn more

10-Day Weather Forecast

Advertisements
Track Severe Weather on mobile